Terminal Aerodrome Forecast
Issued by NWS

Home | Current Version | Previous Version | Text Only | Print | Product List | Glossary On
Versions: 1 2 3 4 5 6 7 8 9 10 11 12 13 14 15 16 17 18 19 20 21
457
FTUS43 KIND 271400 AAA
TAFHUF
TAF AMD
KHUF 271400Z 2714/2812 35006KT P6SM BKN025
      TEMPO 2714/2716 OVC015
     FM271700 33004KT P6SM BKN035
     FM272300 07004KT P6SM SCT130
     FM280500 16006KT P6SM SHRA VCTS OVC050CB
     FM280900 14005KT P6SM SHRA VCTS BKN025CB=

USA.gov is the U.S. government's official web portal to all federal, state and local government web resources and services.